sensor_id;sensor_type;location;lat;lon;timestamp;temperature;humidity
22098;DHT22;11215;51.938;8.464;2023-04-25T00:00:13;10.80;63.00
22098;DHT22;11215;51.938;8.464;2023-04-25T00:02:39;10.90;63.20
22098;DHT22;11215;51.938;8.464;2023-04-25T00:05:05;10.90;63.20
22098;DHT22;11215;51.938;8.464;2023-04-25T00:07:31;10.90;63.30
22098;DHT22;11215;51.938;8.464;2023-04-25T00:09:58;10.80;63.20
22098;DHT22;11215;51.938;8.464;2023-04-25T00:12:24;10.90;63.20
22098;DHT22;11215;51.938;8.464;2023-04-25T00:14:49;10.90;63.20
22098;DHT22;11215;51.938;8.464;2023-04-25T00:17:15;10.90;63.20
22098;DHT22;11215;51.938;8.464;2023-04-25T00:19:44;10.80;63.20
22098;DHT22;11215;51.938;8.464;2023-04-25T00:22:12;10.80;63.20
22098;DHT22;11215;51.938;8.464;2023-04-25T00:24:37;10.90;63.40
22098;DHT22;11215;51.938;8.464;2023-04-25T00:27:03;10.80;63.40
22098;DHT22;11215;51.938;8.464;2023-04-25T00:29:29;10.80;63.40
22098;DHT22;11215;51.938;8.464;2023-04-25T00:31:57;10.80;63.60
22098;DHT22;11215;51.938;8.464;2023-04-25T00:34:22;10.80;63.80
22098;DHT22;11215;51.938;8.464;2023-04-25T00:36:48;10.80;64.00
22098;DHT22;11215;51.938;8.464;2023-04-25T00:39:14;10.80;64.20
22098;DHT22;11215;51.938;8.464;2023-04-25T00:41:39;10.80;64.10
22098;DHT22;11215;51.938;8.464;2023-04-25T00:44:05;10.70;64.30
22098;DHT22;11215;51.938;8.464;2023-04-25T00:46:32;10.70;64.40
22098;DHT22;11215;51.938;8.464;2023-04-25T00:48:58;10.70;65.20
22098;DHT22;11215;51.938;8.464;2023-04-25T00:51:24;10.70;64.40
22098;DHT22;11215;51.938;8.464;2023-04-25T00:53:51;10.70;64.70
22098;DHT22;11215;51.938;8.464;2023-04-25T00:56:17;10.70;64.70
22098;DHT22;11215;51.938;8.464;2023-04-25T00:58:43;10.60;64.70
22098;DHT22;11215;51.938;8.464;2023-04-25T01:01:09;10.60;64.70
22098;DHT22;11215;51.938;8.464;2023-04-25T01:03:37;10.60;64.70
22098;DHT22;11215;51.938;8.464;2023-04-25T01:06:08;10.60;64.80
22098;DHT22;11215;51.938;8.464;2023-04-25T01:08:34;10.60;64.70
22098;DHT22;11215;51.938;8.464;2023-04-25T01:11:00;10.60;64.80
22098;DHT22;11215;51.938;8.464;2023-04-25T01:13:26;10.50;64.90
22098;DHT22;11215;51.938;8.464;2023-04-25T01:15:52;10.60;65.20
22098;DHT22;11215;51.938;8.464;2023-04-25T01:18:19;10.50;65.30
22098;DHT22;11215;51.938;8.464;2023-04-25T01:20:46;10.50;65.20
22098;DHT22;11215;51.938;8.464;2023-04-25T01:23:12;10.50;65.30
22098;DHT22;11215;51.938;8.464;2023-04-25T01:25:39;10.50;65.40
22098;DHT22;11215;51.938;8.464;2023-04-25T01:28:05;10.50;65.50
22098;DHT22;11215;51.938;8.464;2023-04-25T01:30:31;10.50;65.50
22098;DHT22;11215;51.938;8.464;2023-04-25T01:32:57;10.50;65.50
22098;DHT22;11215;51.938;8.464;2023-04-25T01:35:24;10.40;65.60
22098;DHT22;11215;51.938;8.464;2023-04-25T01:37:51;10.50;65.80
22098;DHT22;11215;51.938;8.464;2023-04-25T01:40:17;10.40;65.90
22098;DHT22;11215;51.938;8.464;2023-04-25T01:42:44;10.40;66.10
22098;DHT22;11215;51.938;8.464;2023-04-25T01:45:11;10.40;66.00
22098;DHT22;11215;51.938;8.464;2023-04-25T01:47:37;10.40;66.20
22098;DHT22;11215;51.938;8.464;2023-04-25T01:50:06;10.40;66.40
22098;DHT22;11215;51.938;8.464;2023-04-25T01:52:32;10.40;66.70
22098;DHT22;11215;51.938;8.464;2023-04-25T01:55:00;10.30;66.70
22098;DHT22;11215;51.938;8.464;2023-04-25T01:57:26;10.40;66.90
22098;DHT22;11215;51.938;8.464;2023-04-25T02:00:01;10.30;66.80
22098;DHT22;11215;51.938;8.464;2023-04-25T02:02:27;10.30;67.00
22098;DHT22;11215;51.938;8.464;2023-04-25T02:04:53;10.30;66.90
22098;DHT22;11215;51.938;8.464;2023-04-25T02:07:20;10.30;67.20
22098;DHT22;11215;51.938;8.464;2023-04-25T02:09:46;10.30;67.10
22098;DHT22;11215;51.938;8.464;2023-04-25T02:12:11;10.30;67.40
22098;DHT22;11215;51.938;8.464;2023-04-25T02:14:37;10.30;67.30
22098;DHT22;11215;51.938;8.464;2023-04-25T02:17:03;10.30;67.30
22098;DHT22;11215;51.938;8.464;2023-04-25T02:19:28;10.30;67.30
22098;DHT22;11215;51.938;8.464;2023-04-25T02:21:54;10.20;67.60
22098;DHT22;11215;51.938;8.464;2023-04-25T02:24:20;10.20;67.70
22098;DHT22;11215;51.938;8.464;2023-04-25T02:26:46;10.20;67.70
22098;DHT22;11215;51.938;8.464;2023-04-25T02:29:12;10.20;68.10
22098;DHT22;11215;51.938;8.464;2023-04-25T02:31:38;10.20;68.30
22098;DHT22;11215;51.938;8.464;2023-04-25T02:34:03;10.20;68.50
22098;DHT22;11215;51.938;8.464;2023-04-25T02:36:30;10.20;68.60
22098;DHT22;11215;51.938;8.464;2023-04-25T02:38:57;10.20;68.80
22098;DHT22;11215;51.938;8.464;2023-04-25T02:41:23;10.20;68.80
22098;DHT22;11215;51.938;8.464;2023-04-25T02:43:48;10.20;68.80
22098;DHT22;11215;51.938;8.464;2023-04-25T02:46:14;10.30;69.00
22098;DHT22;11215;51.938;8.464;2023-04-25T02:48:40;10.30;69.10
22098;DHT22;11215;51.938;8.464;2023-04-25T02:51:05;10.30;69.10
22098;DHT22;11215;51.938;8.464;2023-04-25T02:53:31;10.30;69.10
22098;DHT22;11215;51.938;8.464;2023-04-25T02:55:57;10.30;69.30
22098;DHT22;11215;51.938;8.464;2023-04-25T02:58:24;10.30;69.50
22098;DHT22;11215;51.938;8.464;2023-04-25T03:00:50;10.30;69.70
22098;DHT22;11215;51.938;8.464;2023-04-25T03:03:16;10.30;69.50
22098;DHT22;11215;51.938;8.464;2023-04-25T03:05:43;10.30;69.60
22098;DHT22;11215;51.938;8.464;2023-04-25T03:08:09;10.30;69.70
22098;DHT22;11215;51.938;8.464;2023-04-25T03:10:35;10.30;69.70
22098;DHT22;11215;51.938;8.464;2023-04-25T03:13:00;10.30;69.70
22098;DHT22;11215;51.938;8.464;2023-04-25T03:15:26;10.40;69.70
22098;DHT22;11215;51.938;8.464;2023-04-25T03:17:52;10.40;70.20
22098;DHT22;11215;51.938;8.464;2023-04-25T03:20:17;10.40;69.70
22098;DHT22;11215;51.938;8.464;2023-04-25T03:22:43;10.40;69.80
22098;DHT22;11215;51.938;8.464;2023-04-25T03:25:09;10.40;69.80
22098;DHT22;11215;51.938;8.464;2023-04-25T03:27:35;10.40;69.80
22098;DHT22;11215;51.938;8.464;2023-04-25T03:30:01;10.40;69.70
22098;DHT22;11215;51.938;8.464;2023-04-25T03:32:27;10.50;69.80
22098;DHT22;11215;51.938;8.464;2023-04-25T03:34:53;10.50;69.70
22098;DHT22;11215;51.938;8.464;2023-04-25T03:37:18;10.50;69.80
22098;DHT22;11215;51.938;8.464;2023-04-25T03:39:44;10.50;69.80
22098;DHT22;11215;51.938;8.464;2023-04-25T03:42:09;10.50;69.50
22098;DHT22;11215;51.938;8.464;2023-04-25T03:44:35;10.50;69.40
22098;DHT22;11215;51.938;8.464;2023-04-25T03:47:01;10.50;69.20
22098;DHT22;11215;51.938;8.464;2023-04-25T03:49:27;10.50;69.10
22098;DHT22;11215;51.938;8.464;2023-04-25T03:51:52;10.40;68.90
22098;DHT22;11215;51.938;8.464;2023-04-25T03:54:18;10.50;68.90
22098;DHT22;11215;51.938;8.464;2023-04-25T03:56:43;10.50;68.90
22098;DHT22;11215;51.938;8.464;2023-04-25T03:59:09;10.40;68.90
22098;DHT22;11215;51.938;8.464;2023-04-25T04:01:35;10.40;68.90
22098;DHT22;11215;51.938;8.464;2023-04-25T04:04:01;10.40;68.90
22098;DHT22;11215;51.938;8.464;2023-04-25T04:06:26;10.40;69.00
22098;DHT22;11215;51.938;8.464;2023-04-25T04:08:52;10.40;69.00
22098;DHT22;11215;51.938;8.464;2023-04-25T04:11:18;10.40;68.90
22098;DHT22;11215;51.938;8.464;2023-04-25T04:13:43;10.30;68.80
22098;DHT22;11215;51.938;8.464;2023-04-25T04:16:09;10.30;68.50
22098;DHT22;11215;51.938;8.464;2023-04-25T04:18:35;10.30;68.40
22098;DHT22;11215;51.938;8.464;2023-04-25T04:21:04;10.30;68.60
22098;DHT22;11215;51.938;8.464;2023-04-25T04:23:29;10.30;69.00
22098;DHT22;11215;51.938;8.464;2023-04-25T04:25:55;10.30;69.10
22098;DHT22;11215;51.938;8.464;2023-04-25T04:28:21;10.30;69.20
22098;DHT22;11215;51.938;8.464;2023-04-25T04:30:47;10.20;69.10
22098;DHT22;11215;51.938;8.464;2023-04-25T04:33:13;10.20;69.20
22098;DHT22;11215;51.938;8.464;2023-04-25T04:35:40;10.20;69.00
22098;DHT22;11215;51.938;8.464;2023-04-25T04:38:07;10.20;69.10
22098;DHT22;11215;51.938;8.464;2023-04-25T04:40:32;10.20;69.10
22098;DHT22;11215;51.938;8.464;2023-04-25T04:42:58;10.20;69.00
22098;DHT22;11215;51.938;8.464;2023-04-25T04:45:24;10.20;69.10
22098;DHT22;11215;51.938;8.464;2023-04-25T04:47:49;10.20;69.20
22098;DHT22;11215;51.938;8.464;2023-04-25T04:50:15;10.20;69.10
22098;DHT22;11215;51.938;8.464;2023-04-25T04:52:41;10.20;68.80
22098;DHT22;11215;51.938;8.464;2023-04-25T04:55:08;10.10;68.60
22098;DHT22;11215;51.938;8.464;2023-04-25T04:57:34;10.10;68.90
22098;DHT22;11215;51.938;8.464;2023-04-25T05:00:00;10.10;69.10
22098;DHT22;11215;51.938;8.464;2023-04-25T05:02:26;10.10;69.20
22098;DHT22;11215;51.938;8.464;2023-04-25T05:04:52;10.10;69.10
22098;DHT22;11215;51.938;8.464;2023-04-25T05:07:18;10.10;69.00
22098;DHT22;11215;51.938;8.464;2023-04-25T05:09:44;10.10;69.20
22098;DHT22;11215;51.938;8.464;2023-04-25T05:12:10;10.10;69.40
22098;DHT22;11215;51.938;8.464;2023-04-25T05:14:35;10.10;69.50
22098;DHT22;11215;51.938;8.464;2023-04-25T05:17:01;10.10;69.60
22098;DHT22;11215;51.938;8.464;2023-04-25T05:19:30;10.10;69.30
22098;DHT22;11215;51.938;8.464;2023-04-25T05:21:55;10.10;69.00
22098;DHT22;11215;51.938;8.464;2023-04-25T05:24:21;10.10;69.10
22098;DHT22;11215;51.938;8.464;2023-04-25T05:26:47;10.10;69.00
22098;DHT22;11215;51.938;8.464;2023-04-25T05:29:12;10.00;69.20
22098;DHT22;11215;51.938;8.464;2023-04-25T05:31:38;10.10;69.10
22098;DHT22;11215;51.938;8.464;2023-04-25T05:34:03;10.00;69.10
22098;DHT22;11215;51.938;8.464;2023-04-25T05:36:29;10.10;69.10
22098;DHT22;11215;51.938;8.464;2023-04-25T05:38:56;10.00;69.00
22098;DHT22;11215;51.938;8.464;2023-04-25T05:41:21;10.10;69.10
22098;DHT22;11215;51.938;8.464;2023-04-25T05:43:47;10.00;69.10
22098;DHT22;11215;51.938;8.464;2023-04-25T05:46:14;10.00;69.20
22098;DHT22;11215;51.938;8.464;2023-04-25T05:48:42;10.00;69.20
22098;DHT22;11215;51.938;8.464;2023-04-25T05:51:08;10.10;69.50
22098;DHT22;11215;51.938;8.464;2023-04-25T05:53:37;10.10;69.50
22098;DHT22;11215;51.938;8.464;2023-04-25T05:56:02;10.10;69.50
22098;DHT22;11215;51.938;8.464;2023-04-25T05:58:28;10.10;69.40
22098;DHT22;11215;51.938;8.464;2023-04-25T06:00:54;10.10;69.40
22098;DHT22;11215;51.938;8.464;2023-04-25T06:03:20;10.10;69.40
22098;DHT22;11215;51.938;8.464;2023-04-25T06:05:46;10.20;69.60
22098;DHT22;11215;51.938;8.464;2023-04-25T06:08:12;10.20;69.50
22098;DHT22;11215;51.938;8.464;2023-04-25T06:10:38;10.20;69.40
22098;DHT22;11215;51.938;8.464;2023-04-25T06:13:04;10.20;69.20
22098;DHT22;11215;51.938;8.464;2023-04-25T06:15:30;10.20;69.20
22098;DHT22;11215;51.938;8.464;2023-04-25T06:17:58;10.30;69.20
22098;DHT22;11215;51.938;8.464;2023-04-25T06:20:24;10.30;69.20
22098;DHT22;11215;51.938;8.464;2023-04-25T06:22:50;10.30;69.10
22098;DHT22;11215;51.938;8.464;2023-04-25T06:25:17;10.30;68.90
22098;DHT22;11215;51.938;8.464;2023-04-25T06:27:43;10.30;68.80
22098;DHT22;11215;51.938;8.464;2023-04-25T06:30:09;10.40;68.90
22098;DHT22;11215;51.938;8.464;2023-04-25T06:32:36;10.40;69.00
22098;DHT22;11215;51.938;8.464;2023-04-25T06:35:02;10.40;68.90
22098;DHT22;11215;51.938;8.464;2023-04-25T06:37:28;10.40;68.90
22098;DHT22;11215;51.938;8.464;2023-04-25T06:39:54;10.40;68.90
22098;DHT22;11215;51.938;8.464;2023-04-25T06:42:20;10.40;68.80
22098;DHT22;11215;51.938;8.464;2023-04-25T06:44:45;10.40;68.80
22098;DHT22;11215;51.938;8.464;2023-04-25T06:47:11;10.50;68.40
22098;DHT22;11215;51.938;8.464;2023-04-25T06:49:36;10.50;67.90
22098;DHT22;11215;51.938;8.464;2023-04-25T06:52:02;10.50;67.60
22098;DHT22;11215;51.938;8.464;2023-04-25T06:54:28;10.50;67.50
22098;DHT22;11215;51.938;8.464;2023-04-25T06:56:55;10.50;67.60
22098;DHT22;11215;51.938;8.464;2023-04-25T06:59:21;10.50;67.40
22098;DHT22;11215;51.938;8.464;2023-04-25T07:01:47;10.50;67.30
22098;DHT22;11215;51.938;8.464;2023-04-25T07:04:12;10.50;67.40
22098;DHT22;11215;51.938;8.464;2023-04-25T07:06:41;10.60;67.60
22098;DHT22;11215;51.938;8.464;2023-04-25T07:09:11;10.60;67.50
22098;DHT22;11215;51.938;8.464;2023-04-25T07:11:37;10.60;67.20
22098;DHT22;11215;51.938;8.464;2023-04-25T07:14:03;10.60;67.30
22098;DHT22;11215;51.938;8.464;2023-04-25T07:16:28;10.70;67.20
22098;DHT22;11215;51.938;8.464;2023-04-25T07:18:54;10.70;66.90
22098;DHT22;11215;51.938;8.464;2023-04-25T07:21:20;10.70;66.60
22098;DHT22;11215;51.938;8.464;2023-04-25T07:23:46;10.70;66.40
22098;DHT22;11215;51.938;8.464;2023-04-25T07:26:12;10.70;67.10
22098;DHT22;11215;51.938;8.464;2023-04-25T07:28:38;10.80;66.10
22098;DHT22;11215;51.938;8.464;2023-04-25T07:31:04;10.80;66.00
22098;DHT22;11215;51.938;8.464;2023-04-25T07:33:30;10.80;65.80
22098;DHT22;11215;51.938;8.464;2023-04-25T07:35:56;10.80;65.70
22098;DHT22;11215;51.938;8.464;2023-04-25T07:38:22;10.80;65.70
22098;DHT22;11215;51.938;8.464;2023-04-25T07:40:48;10.80;65.70
22098;DHT22;11215;51.938;8.464;2023-04-25T07:43:14;10.80;65.20
22098;DHT22;11215;51.938;8.464;2023-04-25T07:45:43;10.90;65.10
22098;DHT22;11215;51.938;8.464;2023-04-25T07:48:08;10.90;65.20
22098;DHT22;11215;51.938;8.464;2023-04-25T07:50:34;10.90;65.40
22098;DHT22;11215;51.938;8.464;2023-04-25T07:53:00;10.90;65.00
22098;DHT22;11215;51.938;8.464;2023-04-25T07:55:25;10.90;65.20
22098;DHT22;11215;51.938;8.464;2023-04-25T07:57:51;11.00;64.20
22098;DHT22;11215;51.938;8.464;2023-04-25T08:00:17;11.00;64.20
22098;DHT22;11215;51.938;8.464;2023-04-25T08:02:43;11.00;64.10
22098;DHT22;11215;51.938;8.464;2023-04-25T08:05:09;11.00;64.20
22098;DHT22;11215;51.938;8.464;2023-04-25T08:07:57;11.10;64.20
22098;DHT22;11215;51.938;8.464;2023-04-25T08:10:33;11.10;64.20
22098;DHT22;11215;51.938;8.464;2023-04-25T08:12:59;11.20;63.80
22098;DHT22;11215;51.938;8.464;2023-04-25T08:15:28;11.20;63.40
22098;DHT22;11215;51.938;8.464;2023-04-25T08:18:23;11.20;62.80
22098;DHT22;11215;51.938;8.464;2023-04-25T08:21:39;11.30;61.40
22098;DHT22;11215;51.938;8.464;2023-04-25T14:15:05;10.00;61.00
22098;DHT22;11215;51.938;8.464;2023-04-25T14:17:31;11.70;56.90
22098;DHT22;11215;51.938;8.464;2023-04-25T14:19:57;12.00;56.30
22098;DHT22;11215;51.938;8.464;2023-04-25T14:22:22;12.40;55.90
22098;DHT22;11215;51.938;8.464;2023-04-25T14:24:48;12.60;55.50
22098;DHT22;11215;51.938;8.464;2023-04-25T14:27:14;12.80;55.40
22098;DHT22;11215;51.938;8.464;2023-04-25T14:29:40;13.00;55.00
22098;DHT22;11215;51.938;8.464;2023-04-25T14:32:05;13.10;54.50
22098;DHT22;11215;51.938;8.464;2023-04-25T14:34:31;13.20;54.10
22098;DHT22;11215;51.938;8.464;2023-04-25T14:37:00;13.30;53.70
22098;DHT22;11215;51.938;8.464;2023-04-25T14:39:26;13.30;53.10
22098;DHT22;11215;51.938;8.464;2023-04-25T14:41:52;13.40;53.00
22098;DHT22;11215;51.938;8.464;2023-04-25T14:44:17;13.40;52.90
22098;DHT22;11215;51.938;8.464;2023-04-25T14:46:43;13.40;53.00
22098;DHT22;11215;51.938;8.464;2023-04-25T14:49:08;13.40;53.20
22098;DHT22;11215;51.938;8.464;2023-04-25T14:51:34;13.30;53.30
22098;DHT22;11215;51.938;8.464;2023-04-25T14:54:00;13.30;53.30
22098;DHT22;11215;51.938;8.464;2023-04-25T14:56:25;13.20;53.60
22098;DHT22;11215;51.938;8.464;2023-04-25T14:58:51;13.10;53.80
22098;DHT22;11215;51.938;8.464;2023-04-25T15:01:17;13.00;54.00
22098;DHT22;11215;51.938;8.464;2023-04-25T15:03:43;12.90;54.00
22098;DHT22;11215;51.938;8.464;2023-04-25T15:06:08;12.90;54.10
22098;DHT22;11215;51.938;8.464;2023-04-25T15:08:34;12.80;54.20
22098;DHT22;11215;51.938;8.464;2023-04-25T15:11:01;12.70;54.30
22098;DHT22;11215;51.938;8.464;2023-04-25T15:13:27;12.70;54.30
22098;DHT22;11215;51.938;8.464;2023-04-25T15:15:53;12.70;54.40
22098;DHT22;11215;51.938;8.464;2023-04-25T15:18:22;12.60;54.50
22098;DHT22;11215;51.938;8.464;2023-04-25T15:20:52;12.60;54.60
22098;DHT22;11215;51.938;8.464;2023-04-25T15:23:19;12.60;54.60
22098;DHT22;11215;51.938;8.464;2023-04-25T15:25:45;12.70;54.80
22098;DHT22;11215;51.938;8.464;2023-04-25T15:28:11;12.70;54.90
22098;DHT22;11215;51.938;8.464;2023-04-25T15:30:40;12.70;55.00
22098;DHT22;11215;51.938;8.464;2023-04-25T15:33:06;12.80;55.00
22098;DHT22;11215;51.938;8.464;2023-04-25T15:35:31;12.80;55.30
22098;DHT22;11215;51.938;8.464;2023-04-25T15:37:57;12.90;55.30
22098;DHT22;11215;51.938;8.464;2023-04-25T15:40:23;13.00;54.90
22098;DHT22;11215;51.938;8.464;2023-04-25T15:42:51;13.10;54.40
22098;DHT22;11215;51.938;8.464;2023-04-25T15:45:18;13.10;53.90
22098;DHT22;11215;51.938;8.464;2023-04-25T15:47:44;13.20;53.40
22098;DHT22;11215;51.938;8.464;2023-04-25T15:50:10;13.20;53.30
22098;DHT22;11215;51.938;8.464;2023-04-25T15:52:37;13.10;53.20
22098;DHT22;11215;51.938;8.464;2023-04-25T15:55:03;13.10;53.10
22098;DHT22;11215;51.938;8.464;2023-04-25T15:57:31;13.00;53.00
22098;DHT22;11215;51.938;8.464;2023-04-25T15:59:57;13.00;52.80
22098;DHT22;11215;51.938;8.464;2023-04-25T16:02:22;12.90;52.80
22098;DHT22;11215;51.938;8.464;2023-04-25T16:04:48;12.80;52.80
22098;DHT22;11215;51.938;8.464;2023-04-25T16:07:14;12.70;53.10
22098;DHT22;11215;51.938;8.464;2023-04-25T16:09:40;12.70;53.20
22098;DHT22;11215;51.938;8.464;2023-04-25T16:12:07;12.60;53.40
22098;DHT22;11215;51.938;8.464;2023-04-25T16:14:33;12.60;53.40
22098;DHT22;11215;51.938;8.464;2023-04-25T16:16:58;12.50;53.50
22098;DHT22;11215;51.938;8.464;2023-04-25T16:19:24;12.50;53.60
22098;DHT22;11215;51.938;8.464;2023-04-25T16:21:50;12.50;53.60
22098;DHT22;11215;51.938;8.464;2023-04-25T16:24:16;12.40;53.50
22098;DHT22;11215;51.938;8.464;2023-04-25T16:26:42;12.40;53.70
22098;DHT22;11215;51.938;8.464;2023-04-25T16:29:09;12.40;53.90
22098;DHT22;11215;51.938;8.464;2023-04-25T16:31:35;12.40;54.10
22098;DHT22;11215;51.938;8.464;2023-04-25T16:34:01;12.30;54.20
22098;DHT22;11215;51.938;8.464;2023-04-25T16:36:27;12.30;54.40
22098;DHT22;11215;51.938;8.464;2023-04-25T16:38:53;12.30;54.40
22098;DHT22;11215;51.938;8.464;2023-04-25T16:41:19;12.30;54.60
22098;DHT22;11215;51.938;8.464;2023-04-25T16:43:44;12.30;54.60
22098;DHT22;11215;51.938;8.464;2023-04-25T16:46:10;12.30;54.80
22098;DHT22;11215;51.938;8.464;2023-04-25T16:48:35;12.30;55.00
22098;DHT22;11215;51.938;8.464;2023-04-25T16:51:01;12.40;55.10
22098;DHT22;11215;51.938;8.464;2023-04-25T16:53:27;12.40;55.40
22098;DHT22;11215;51.938;8.464;2023-04-25T16:55:53;12.50;55.50
22098;DHT22;11215;51.938;8.464;2023-04-25T16:58:19;12.60;55.50
22098;DHT22;11215;51.938;8.464;2023-04-25T17:00:44;12.70;55.40
22098;DHT22;11215;51.938;8.464;2023-04-25T17:03:12;12.70;55.10
22098;DHT22;11215;51.938;8.464;2023-04-25T17:05:38;12.80;55.00
22098;DHT22;11215;51.938;8.464;2023-04-25T17:08:03;12.90;54.60
22098;DHT22;11215;51.938;8.464;2023-04-25T17:10:29;12.90;54.40
22098;DHT22;11215;51.938;8.464;2023-04-25T17:12:55;13.00;54.40
22098;DHT22;11215;51.938;8.464;2023-04-25T17:15:21;13.00;54.40
22098;DHT22;11215;51.938;8.464;2023-04-25T17:17:47;13.00;54.40
22098;DHT22;11215;51.938;8.464;2023-04-25T17:20:13;13.00;54.50
22098;DHT22;11215;51.938;8.464;2023-04-25T17:22:39;13.10;54.70
22098;DHT22;11215;51.938;8.464;2023-04-25T17:25:06;13.20;54.50
22098;DHT22;11215;51.938;8.464;2023-04-25T17:27:36;13.20;54.50
22098;DHT22;11215;51.938;8.464;2023-04-25T17:30:03;13.30;54.60
22098;DHT22;11215;51.938;8.464;2023-04-25T17:32:29;13.40;54.60
22098;DHT22;11215;51.938;8.464;2023-04-25T17:34:55;13.40;54.60
22098;DHT22;11215;51.938;8.464;2023-04-25T17:37:21;13.60;54.70
22098;DHT22;11215;51.938;8.464;2023-04-25T17:39:47;13.80;54.70
22098;DHT22;11215;51.938;8.464;2023-04-25T17:42:13;14.00;54.50
22098;DHT22;11215;51.938;8.464;2023-04-25T17:44:40;14.20;54.20
22098;DHT22;11215;51.938;8.464;2023-04-25T17:47:06;14.40;54.00
22098;DHT22;11215;51.938;8.464;2023-04-25T17:49:33;14.60;53.60
22098;DHT22;11215;51.938;8.464;2023-04-25T17:51:59;14.70;53.20
22098;DHT22;11215;51.938;8.464;2023-04-25T17:54:25;14.80;52.80
22098;DHT22;11215;51.938;8.464;2023-04-25T17:56:52;14.80;52.50
22098;DHT22;11215;51.938;8.464;2023-04-25T17:59:19;14.70;52.20
22098;DHT22;11215;51.938;8.464;2023-04-25T18:01:45;14.60;51.70
22098;DHT22;11215;51.938;8.464;2023-04-25T18:04:12;14.50;51.40
22098;DHT22;11215;51.938;8.464;2023-04-25T18:06:39;14.40;51.40
22098;DHT22;11215;51.938;8.464;2023-04-25T18:09:05;14.20;51.60
22098;DHT22;11215;51.938;8.464;2023-04-25T18:11:45;14.00;51.50
22098;DHT22;11215;51.938;8.464;2023-04-25T18:14:12;13.90;51.70
22098;DHT22;11215;51.938;8.464;2023-04-25T18:16:42;13.70;51.80
22098;DHT22;11215;51.938;8.464;2023-04-25T18:19:08;13.60;52.20
22098;DHT22;11215;51.938;8.464;2023-04-25T18:21:44;13.50;52.20
22098;DHT22;11215;51.938;8.464;2023-04-25T18:24:11;13.40;52.20
22098;DHT22;11215;51.938;8.464;2023-04-25T18:26:38;13.30;52.20
22098;DHT22;11215;51.938;8.464;2023-04-25T18:29:04;13.20;52.00
22098;DHT22;11215;51.938;8.464;2023-04-25T18:31:32;13.10;51.70
22098;DHT22;11215;51.938;8.464;2023-04-25T18:33:58;12.90;51.60
22098;DHT22;11215;51.938;8.464;2023-04-25T18:36:23;12.80;51.00
22098;DHT22;11215;51.938;8.464;2023-04-25T18:38:49;12.70;51.10
22098;DHT22;11215;51.938;8.464;2023-04-25T18:41:23;12.60;51.20
22098;DHT22;11215;51.938;8.464;2023-04-25T18:43:55;12.40;51.20
22098;DHT22;11215;51.938;8.464;2023-04-25T18:46:25;12.30;50.80
22098;DHT22;11215;51.938;8.464;2023-04-25T18:48:51;12.20;51.30
22098;DHT22;11215;51.938;8.464;2023-04-25T18:51:23;12.20;51.40
22098;DHT22;11215;51.938;8.464;2023-04-25T18:53:52;12.10;51.30
22098;DHT22;11215;51.938;8.464;2023-04-25T18:56:17;12.00;51.60
22098;DHT22;11215;51.938;8.464;2023-04-25T18:58:45;11.90;51.60
22098;DHT22;11215;51.938;8.464;2023-04-25T19:01:11;11.90;51.70
22098;DHT22;11215;51.938;8.464;2023-04-25T19:03:37;11.80;51.60
22098;DHT22;11215;51.938;8.464;2023-04-25T19:06:03;11.80;51.80
22098;DHT22;11215;51.938;8.464;2023-04-25T19:08:29;11.70;51.80
22098;DHT22;11215;51.938;8.464;2023-04-25T19:10:55;11.70;51.90
22098;DHT22;11215;51.938;8.464;2023-04-25T19:13:21;11.60;51.80
22098;DHT22;11215;51.938;8.464;2023-04-25T19:15:47;11.60;51.80
22098;DHT22;11215;51.938;8.464;2023-04-25T19:18:13;11.60;51.90
22098;DHT22;11215;51.938;8.464;2023-04-25T19:20:41;11.60;52.20
22098;DHT22;11215;51.938;8.464;2023-04-25T19:23:08;11.50;52.20
22098;DHT22;11215;51.938;8.464;2023-04-25T19:25:35;11.50;52.20
22098;DHT22;11215;51.938;8.464;2023-04-25T19:28:01;11.50;52.20
22098;DHT22;11215;51.938;8.464;2023-04-25T19:30:27;11.40;52.30
22098;DHT22;11215;51.938;8.464;2023-04-25T19:32:56;11.40;52.40
22098;DHT22;11215;51.938;8.464;2023-04-25T19:35:22;11.30;52.40
22098;DHT22;11215;51.938;8.464;2023-04-25T19:37:48;11.30;52.40
22098;DHT22;11215;51.938;8.464;2023-04-25T19:40:16;11.30;52.50
22098;DHT22;11215;51.938;8.464;2023-04-25T19:42:42;11.30;52.60
22098;DHT22;11215;51.938;8.464;2023-04-25T19:45:08;11.20;52.60
22098;DHT22;11215;51.938;8.464;2023-04-25T19:47:34;11.20;52.80
22098;DHT22;11215;51.938;8.464;2023-04-25T19:50:05;11.20;53.00
22098;DHT22;11215;51.938;8.464;2023-04-25T19:52:32;11.10;53.00
22098;DHT22;11215;51.938;8.464;2023-04-25T19:54:59;11.10;53.10
22098;DHT22;11215;51.938;8.464;2023-04-25T19:57:27;11.00;53.20
22098;DHT22;11215;51.938;8.464;2023-04-25T20:00:00;11.00;53.40
22098;DHT22;11215;51.938;8.464;2023-04-25T20:02:29;11.00;53.50
22098;DHT22;11215;51.938;8.464;2023-04-25T20:04:55;10.90;53.50
22098;DHT22;11215;51.938;8.464;2023-04-25T20:07:21;10.90;53.60
22098;DHT22;11215;51.938;8.464;2023-04-25T20:09:48;10.90;53.70
22098;DHT22;11215;51.938;8.464;2023-04-25T20:12:14;10.90;53.70
22098;DHT22;11215;51.938;8.464;2023-04-25T20:14:41;10.80;53.90
22098;DHT22;11215;51.938;8.464;2023-04-25T20:17:07;10.80;54.10
22098;DHT22;11215;51.938;8.464;2023-04-25T20:19:32;10.80;54.10
22098;DHT22;11215;51.938;8.464;2023-04-25T20:21:58;10.80;54.20
22098;DHT22;11215;51.938;8.464;2023-04-25T20:24:24;10.80;54.30
22098;DHT22;11215;51.938;8.464;2023-04-25T20:26:49;10.80;54.30
22098;DHT22;11215;51.938;8.464;2023-04-25T20:29:15;10.80;54.20
22098;DHT22;11215;51.938;8.464;2023-04-25T20:31:41;10.80;54.30
22098;DHT22;11215;51.938;8.464;2023-04-25T20:34:07;10.80;54.40
22098;DHT22;11215;51.938;8.464;2023-04-25T20:36:33;10.70;54.30
22098;DHT22;11215;51.938;8.464;2023-04-25T20:38:59;10.70;54.40
22098;DHT22;11215;51.938;8.464;2023-04-25T20:41:25;10.70;54.60
22098;DHT22;11215;51.938;8.464;2023-04-25T20:43:51;10.70;54.50
22098;DHT22;11215;51.938;8.464;2023-04-25T20:46:17;10.60;54.60
22098;DHT22;11215;51.938;8.464;2023-04-25T20:48:43;10.60;54.60
22098;DHT22;11215;51.938;8.464;2023-04-25T20:51:09;10.60;54.60
22098;DHT22;11215;51.938;8.464;2023-04-25T20:53:36;10.60;54.60
22098;DHT22;11215;51.938;8.464;2023-04-25T20:56:02;10.50;54.60
22098;DHT22;11215;51.938;8.464;2023-04-25T20:58:28;10.50;54.70
22098;DHT22;11215;51.938;8.464;2023-04-25T21:00:54;10.40;54.80
22098;DHT22;11215;51.938;8.464;2023-04-25T21:03:20;10.40;55.00
22098;DHT22;11215;51.938;8.464;2023-04-25T21:05:46;10.30;55.00
22098;DHT22;11215;51.938;8.464;2023-04-25T21:08:12;10.30;55.10
22098;DHT22;11215;51.938;8.464;2023-04-25T21:10:38;10.30;55.30
22098;DHT22;11215;51.938;8.464;2023-04-25T21:13:04;10.30;55.30
22098;DHT22;11215;51.938;8.464;2023-04-25T21:15:30;10.20;55.40